BEM VINDO À Fly Ecuador Virtual

Fly Ecuador Virtual es una organización creada con el fin de brindar una plataforma que permita a los pilotos virtuales, principalmente ecuatorianos, tener un lugar donde registrar sus horas de vuelo, sus certificados de conocimiento adquiridos, las rutas que han volado y los destinos que han visitado. Así mismo, se busca ayudar a todos los pilotos a expandir su conocimiento sobre el mundo de la aviación real y virtual por medio de publicaciones, foros y cursos en línea.

A diferencia de las aerolíneas virtuales tradicionales, Fly Ecuador Virtual no simula las operaciones de una aerolínea del mundo real en específico. Un miembro de Fly Ecuador Virtual tiene toda la libertad de volar cualquier aeronave que opere en el espacio aéreo ecuatoriano real, en cualquier ruta, sea esta nacional o internacional, IFR o VFR, aeronaves monomotor, multimotor o helicópteros. Todo esto con el objetivo de expandir las operaciones virtuales dentro del espacio aéreo ecuatoriano, creando una comunidad en la que se compartan conocimientos y experiencias que beneficien a todos sus integrantes.

El crecimiento de Fly Ecuador Virtual depende de la participación conjunta de todos sus miembros, por este motivo se incentiva la participación en línea a través de los diferentes medios descritos más adelante en este sitio web.

 ESTATÍSTICAS

Pilotos 77
Aeronaves da Frota 0
Rotas 0
Total de Horas: 10518.48
Total de Vôos 1691
Vôos Regulares 0
Vôos Charter 1738
% de Vôos Regulares 0.00 %

 ÚLTIMOS VÔOS

CallsignPilotoOrigemDestinoDataHorário
ECU024Arturo Carvajal  SEMT  SEQM 2019-01-13 0.66
ECU018Luis Heredia  SECU  SEQM 2018-12-16 0.54
ECU024Arturo Carvajal  SECU  SEQM 2018-12-16 0.58
ECU018Luis Heredia  SEGU  SEQM 2018-12-09 0.47
ECU024Arturo Carvajal  SVMI  SEQM 2018-12-09 2.18

 NOVOS PILOTOS

 Consultar METAR

METAR
SEGU - José Joaquín de Olmedo International Airport, Guayaquil, ECU
Distance from station: N 0mi, 0km
Updated: Sun, 20-Jan-2019 1:00pm PST
Mostly Cloudy
Mostly Cloudy
 Wind from NE
Wind: NE 3 mph , 6 km/h
Temperature: 84°F , 29°C
Heat Index: 89°F , 32°C
Dew Point: 72°F , 22°C
Humidity: 66%
Barometer: 29.77 inHg , 1008 hPa
Clouds: Mostly Cloudy
Visibility: 6 miles , 10 km
Cloud details: Partly Cloudy 2600 ft
Mostly Cloudy 9000 ft
2019/01/20 21:00 SEGU 202100Z 05003KT 020V090 9999 SCT026 BKN090 29/22 Q1008 NOSIG RMK A2977
 
SEQM - Aeropuerto Internacional Mariscal Sucre, ECU
Distance from station: NE 120mi, 200km
Updated: Sun, 20-Jan-2019 1:00pm PST
Mostly Cloudy
Mostly Cloudy
 Wind from NNE
Wind: NNE 10 mph , 17 km/h
Temperature: 64°F , 18°C
Dew Point: 54°F , 12°C
Humidity: 68%
Barometer: 30.18 inHg , 1022 hPa
Clouds: Mostly Cloudy
Visibility: 6 miles , 10 km
Cloud details: Mostly Cloudy 3300 ft
2019/01/20 21:00 SEQM 202100Z 03009KT 9999 BKN033 18/12 Q1022 NOSIG RMK A3018
 
SECU - Mariscal Lamar Airpor, ECU
Distance from station: ENE 80mi, 120km
Updated: Sun, 20-Jan-2019 1:00pm PST
Nearby showers, Mostly cloudy
Nearby showers, Mostly cloudy
 Wind from E
Wind: E 9 mph , 15 km/h
Temperature: 66°F , 19°C
Dew Point: 50°F , 10°C
Humidity: 56%
Barometer: 30.21 inHg , 1023 hPa
Summary: Nearby Showers
Clouds: Mostly Cloudy
Visibility: 6 miles , 10 km
Cloud details: Mostly Cloudy 4000 ft
2019/01/20 21:00 SECU 202100Z 09008KT 9999 VCSH BKN040 19/10 Q1023
 
SELT - Cotopaxi International Airport, ECU
Distance from station: NW 21mi, 34km
Updated: Sun, 20-Jan-2019 1:00pm PST
Mostly Cloudy
Mostly Cloudy
 Wind from S
Wind: S 20 mph , 31 km/h
Temperature: 61°F , 16°C
Dew Point: 50°F , 10°C
Humidity: 68%
Barometer: 30.33 inHg , 1027 hPa
Clouds: Mostly Cloudy
Visibility: 6 miles , 10 km
Cloud details: Mostly Cloudy 2600 ft
2019/01/20 21:00 SELT 202100Z 17017KT 9999 BKN026 16/10 Q1027
 
SEMT - Eloy Alfaro International Airport, ECU
Distance from station: SSE 70mi, 100km
Updated: Sun, 20-Jan-2019 1:00pm PST
Partly Cloudy
Partly Cloudy
 Wind from NNW
Wind: NNW 5 mph , 7 km/h
Temperature: 84°F , 29°C
Heat Index: 92°F , 33°C
Dew Point: 75°F , 24°C
Humidity: 74%
Barometer: 29.77 inHg , 1008 hPa
Clouds: Partly Cloudy
Visibility: 6 miles , 10 km
Cloud details: Mostly Cloudy 2600 ft
Partly Cloudy 8000 ft
2019/01/20 21:00 SEMT 202100Z 33004KT 9999 BKN026 SCT080 29/24 Q1008

Metar display script from Saratoga-Weather.org

 NOTAMS

NOTAMData



Fly Ecuador Virtual 2018 | System by VAM